Time;durP1;ratioP1;P1;durP2;ratioP2;P2;SDS_P1;SDS_P2;PMS_P1;PMS_P2;Temp;Humidity;BMP_temperature;BMP_pressure;BME280_temperature;BME280_humidity;BME280_pressure;Samples;Min_cycle;Max_cycle;Signal;HPM_P1;HPM_P2
2022/06/21 00:01:49;;;;;;;;;;;;;;;8.84;100.00;98597.44;4214127;28;19919;-69
2022/06/21 00:03:50;;;;;;;;;;;;;;;8.83;98.05;98593.88;4212386;28;19927;-69
2022/06/21 00:05:51;;;;;;;;;;;;;;;8.76;97.23;98599.25;4213602;28;20264;-69
2022/06/21 00:07:51;;;;;;;;;;;;;;;8.67;97.62;98601.44;4217393;28;19920;-69
2022/06/21 00:09:52;;;;;;;;;;;;;;;8.61;97.89;98589.91;4205005;28;20364;-69
2022/06/21 00:11:52;;;;;;;;;;;;;;;8.58;96.66;98596.13;4215565;28;20383;-69
2022/06/21 00:13:53;;;;;;;;;;;;;;;8.54;95.24;98598.03;4214894;28;19916;-69
2022/06/21 00:15:55;;;;;;;;;;;;;;;8.46;95.61;98601.00;4209461;28;19916;-69
2022/06/21 00:17:55;;;;;;;;;;;;;;;8.36;96.05;98596.84;4211824;28;19920;-69
2022/06/21 00:19:55;;;;;;;;;;;;;;;8.28;95.70;98598.63;4212294;28;20382;-69
2022/06/21 00:21:56;;;;;;;;;;;;;;;8.21;96.27;98597.66;4218927;28;20352;-69
2022/06/21 00:23:56;;;;;;;;;;;;;;;8.13;97.95;98608.50;4216827;28;20364;-69
2022/06/21 00:25:56;;;;;;;;;;;;;;;8.10;99.00;98602.91;4213587;28;19998;-69
2022/06/21 00:27:56;;;;;;;;;;;;;;;8.05;99.43;98608.72;4211760;28;19916;-69
2022/06/21 00:29:57;;;;;;;;;;;;;;;8.02;99.33;98603.91;4211169;28;19926;-69
2022/06/21 00:31:57;;;;;;;;;;;;;;;7.99;100.00;98601.88;4218237;28;20667;-69
2022/06/21 00:33:58;;;;;;;;;;;;;;;7.97;100.00;98607.75;4210413;28;19985;-69
2022/06/21 00:35:59;;;;;;;;;;;;;;;7.93;100.00;98609.59;4210178;27;19939;-69
2022/06/21 00:38:00;;;;;;;;;;;;;;;7.86;100.00;98610.25;4212521;28;19916;-69
2022/06/21 00:40:00;;;;;;;;;;;;;;;7.83;100.00;98610.16;4213220;28;19923;-69
2022/06/21 00:42:02;;;;;;;;;;;;;;;7.85;98.99;98618.84;4210558;28;19916;-69
2022/06/21 00:44:03;;;;;;;;;;;;;;;7.84;97.34;98612.53;4210822;28;19922;-69
2022/06/21 00:46:15;;;;;;;;;;;;;;;7.84;96.64;98609.78;4212893;28;19974;-69
2022/06/21 00:48:19;;;;;;;;;;;;;;;7.74;97.33;98615.84;4212246;28;20316;-69
2022/06/21 00:50:23;;;;;;;;;;;;;;;7.66;97.80;98622.31;4210694;28;20309;-69
2022/06/21 00:52:33;;;;;;;;;;;;;;;7.62;97.00;98621.44;4214336;28;20325;-69
2022/06/21 00:54:36;;;;;;;;;;;;;;;7.56;96.50;98620.09;4212638;28;19920;-69
2022/06/21 00:56:39;;;;;;;;;;;;;;;7.52;97.26;98619.19;4213462;28;19920;-69
2022/06/21 00:58:39;;;;;;;;;;;;;;;7.48;97.81;98602.59;4215081;28;20456;-69
2022/06/21 01:00:49;;;;;;;;;;;;;;;7.51;99.38;98604.63;4213318;28;19940;-69
2022/06/21 01:02:49;;;;;;;;;;;;;;;7.47;100.00;98617.53;4212324;28;20330;-69
2022/06/21 01:04:53;;;;;;;;;;;;;;;7.41;100.00;98607.13;4213345;28;19916;-69
2022/06/21 01:06:55;;;;;;;;;;;;;;;7.37;100.00;98609.78;4211945;28;19924;-69
2022/06/21 01:09:00;;;;;;;;;;;;;;;7.38;98.32;98608.63;4211947;28;20456;-69
2022/06/21 01:11:05;;;;;;;;;;;;;;;7.33;98.45;98609.69;4209124;28;20285;-69
2022/06/21 01:13:10;;;;;;;;;;;;;;;7.30;98.73;98612.34;4207776;28;20245;-69
2022/06/21 01:15:34;;;;;;;;;;;;;;;7.32;96.87;98608.09;4214297;28;20022;-69
2022/06/21 01:17:35;;;;;;;;;;;;;;;7.32;96.92;98610.84;4200822;28;20046;-69
2022/06/21 01:19:37;;;;;;;;;;;;;;;7.35;97.91;98617.59;4214108;28;19916;-69
2022/06/21 01:21:40;;;;;;;;;;;;;;;7.45;97.08;98611.59;4208867;28;19920;-69
2022/06/21 01:23:55;;;;;;;;;;;;;;;7.53;96.06;98613.38;4213915;28;19916;-69
2022/06/21 01:25:59;;;;;;;;;;;;;;;7.53;95.82;98613.38;4211953;28;19965;-69
2022/06/21 01:28:00;;;;;;;;;;;;;;;7.57;99.65;98610.69;4214184;28;19920;-69
2022/06/21 01:30:01;;;;;;;;;;;;;;;7.57;99.69;98617.00;4213685;28;20402;-69
2022/06/21 01:32:03;;;;;;;;;;;;;;;7.58;100.00;98615.03;4209135;28;20245;-69
2022/06/21 01:34:06;;;;;;;;;;;;;;;7.56;100.00;98620.91;4211299;28;19938;-69
2022/06/21 01:36:26;;;;;;;;;;;;;;;7.53;100.00;98621.63;4213393;28;19962;-69
2022/06/21 01:38:30;;;;;;;;;;;;;;;7.47;100.00;98628.53;4213833;28;19916;-69
2022/06/21 01:40:33;;;;;;;;;;;;;;;7.49;99.56;98622.66;4213073;28;20255;-69
2022/06/21 01:42:40;;;;;;;;;;;;;;;7.56;97.19;98623.66;4209818;28;19916;-69
2022/06/21 01:44:46;;;;;;;;;;;;;;;7.58;97.80;98626.84;4208514;28;20176;-69
2022/06/21 01:46:46;;;;;;;;;;;;;;;7.60;98.72;98619.03;4216039;28;20257;-69
2022/06/21 01:48:46;;;;;;;;;;;;;;;7.66;96.54;98624.28;4211045;28;20324;-69
2022/06/21 01:50:48;;;;;;;;;;;;;;;7.72;96.08;98625.63;4204330;28;20277;-69
2022/06/21 01:52:51;;;;;;;;;;;;;;;7.66;95.87;98627.81;4211301;28;19931;-69
2022/06/21 01:55:11;;;;;;;;;;;;;;;7.56;95.60;98623.66;4213311;28;19923;-69
2022/06/21 01:57:13;;;;;;;;;;;;;;;7.48;94.53;98623.81;4210384;28;20408;-69
2022/06/21 01:59:17;;;;;;;;;;;;;;;7.42;94.85;98626.03;4209510;28;20486;-69
2022/06/21 02:01:20;;;;;;;;;;;;;;;7.36;94.82;98626.63;4205544;28;20335;-69
2022/06/21 02:03:24;;;;;;;;;;;;;;;7.40;94.63;98620.09;4211342;28;19916;-69
2022/06/21 02:05:31;;;;;;;;;;;;;;;7.39;95.01;98621.25;4212044;28;19985;-69
2022/06/21 02:07:33;;;;;;;;;;;;;;;7.35;94.85;98617.59;4214996;28;20042;-69
2022/06/21 02:09:37;;;;;;;;;;;;;;;7.35;95.17;98614.03;4211147;28;20329;-69
2022/06/21 02:11:42;;;;;;;;;;;;;;;7.25;94.33;98615.34;4213749;28;19916;-69
2022/06/21 02:14:27;;;;;;;;;;;;;;;7.16;95.30;98610.00;4216499;28;20212;-69
2022/06/21 02:16:13;;;;;;;;;;;;;;;7.01;95.59;98605.28;4210165;28;19916;-69
2022/06/21 02:18:15;;;;;;;;;;;;;;;6.89;96.31;98619.09;4212910;28;19915;-69
2022/06/21 02:20:42;;;;;;;;;;;;;;;6.83;95.82;98614.97;4212925;28;19968;-69
2022/06/21 02:22:42;;;;;;;;;;;;;;;6.81;96.63;98612.59;4209801;28;19916;-69
2022/06/21 02:24:43;;;;;;;;;;;;;;;6.79;96.20;98614.09;4210116;28;19977;-69
2022/06/21 02:26:43;;;;;;;;;;;;;;;6.79;97.53;98616.84;4211536;28;19920;-69
2022/06/21 02:28:45;;;;;;;;;;;;;;;6.78;100.00;98613.28;4212425;28;19922;-69
2022/06/21 02:30:47;;;;;;;;;;;;;;;6.76;100.00;98619.13;4214295;28;19937;-69
2022/06/21 02:32:49;;;;;;;;;;;;;;;6.72;99.59;98610.00;4212753;28;20091;-69
2022/06/21 02:34:51;;;;;;;;;;;;;;;6.69;98.58;98609.88;4211527;28;20797;-69
2022/06/21 02:36:55;;;;;;;;;;;;;;;6.68;97.23;98619.28;4211334;28;20339;-69
2022/06/21 02:38:57;;;;;;;;;;;;;;;6.66;95.89;98618.81;4212854;28;20432;-69
2022/06/21 02:41:10;;;;;;;;;;;;;;;6.59;96.30;98616.66;4212105;28;20005;-69
2022/06/21 02:43:18;;;;;;;;;;;;;;;6.54;97.02;98614.19;4210997;28;19931;-69
2022/06/21 02:45:28;;;;;;;;;;;;;;;6.53;99.38;98615.28;4212553;28;19965;-69
2022/06/21 02:47:32;;;;;;;;;;;;;;;6.59;100.00;98624.13;4208013;28;19912;-69
2022/06/21 02:49:35;;;;;;;;;;;;;;;6.65;100.00;98618.03;4212108;28;19920;-69
2022/06/21 02:51:42;;;;;;;;;;;;;;;6.69;100.00;98621.66;4214438;28;19916;-69
2022/06/21 02:53:51;;;;;;;;;;;;;;;6.72;100.00;98626.47;4217010;28;19920;-69
2022/06/21 02:55:56;;;;;;;;;;;;;;;6.74;100.00;98612.38;4214669;28;20540;-69
2022/06/21 02:58:29;;;;;;;;;;;;;;;6.73;100.00;98619.84;4213077;28;20063;-69
2022/06/21 03:00:29;;;;;;;;;;;;;;;6.80;100.00;98619.25;4185943;28;19916;-69
2022/06/21 03:02:31;;;;;;;;;;;;;;;6.87;100.00;98624.13;4212566;28;19926;-69
2022/06/21 03:04:36;;;;;;;;;;;;;;;6.95;100.00;98624.00;4209822;28;20043;-69
2022/06/21 03:06:36;;;;;;;;;;;;;;;7.01;100.00;98632.78;4212914;28;20278;-69
2022/06/21 03:08:45;;;;;;;;;;;;;;;7.13;100.00;98637.44;4207296;28;20410;-69
2022/06/21 03:10:47;;;;;;;;;;;;;;;7.12;100.00;98639.41;4213730;28;19920;-69
2022/06/21 03:12:49;;;;;;;;;;;;;;;7.14;100.00;98634.34;4218344;28;19920;-69
2022/06/21 03:14:54;;;;;;;;;;;;;;;7.17;99.43;98632.81;4215951;28;19923;-69
2022/06/21 03:16:56;;;;;;;;;;;;;;;7.16;99.52;98633.97;4216549;28;20337;-69
2022/06/21 03:18:58;;;;;;;;;;;;;;;7.11;99.78;98624.00;4213154;28;20276;-69
2022/06/21 03:21:01;;;;;;;;;;;;;;;7.13;97.56;98623.69;4216161;28;19919;-69
2022/06/21 03:23:02;;;;;;;;;;;;;;;7.08;94.24;98613.72;4208601;28;20312;-69
2022/06/21 03:25:04;;;;;;;;;;;;;;;7.02;93.58;98615.13;4208576;28;20241;-68
2022/06/21 03:27:14;;;;;;;;;;;;;;;6.92;92.84;98612.88;4217376;28;19942;-69
2022/06/21 03:29:14;;;;;;;;;;;;;;;6.79;94.67;98614.09;4213338;28;20035;-69
2022/06/21 03:31:19;;;;;;;;;;;;;;;6.79;95.66;98614.91;4211907;28;20476;-69
2022/06/21 03:33:19;;;;;;;;;;;;;;;6.71;96.10;98604.84;4214627;28;19916;-69
2022/06/21 03:35:20;;;;;;;;;;;;;;;6.61;97.85;98602.56;4214205;28;20030;-69
2022/06/21 03:37:21;;;;;;;;;;;;;;;6.55;98.10;98618.53;4214591;27;19916;-69
2022/06/21 03:41:42;;;;;;;;;;;;;;;6.61;97.71;98611.59;4212542;28;20241;-69
2022/06/21 03:41:44;;;;;;;;;;;;;;;6.63;97.16;98614.03;4212405;28;20220;-69
2022/06/21 03:43:47;;;;;;;;;;;;;;;6.58;98.98;98611.50;4207584;28;19945;-68
2022/06/21 03:45:48;;;;;;;;;;;;;;;6.71;96.78;98610.34;4208473;28;19916;-69
2022/06/21 03:47:55;;;;;;;;;;;;;;;6.75;96.58;98611.22;4211009;28;20299;-69
2022/06/21 03:50:31;;;;;;;;;;;;;;;6.71;97.36;98604.84;4206120;28;20772;-69
2022/06/21 03:52:44;;;;;;;;;;;;;;;6.72;97.45;98618.25;4156379;28;19971;-69
2022/06/21 03:54:47;;;;;;;;;;;;;;;6.68;96.92;98613.78;4191797;28;20003;-69
2022/06/21 03:56:51;;;;;;;;;;;;;;;6.66;97.66;98610.56;4208518;28;19920;-69
2022/06/21 03:58:51;;;;;;;;;;;;;;;6.66;98.25;98607.81;4208586;28;20145;-69
2022/06/21 04:00:59;;;;;;;;;;;;;;;6.65;99.35;98612.53;4211755;28;20244;-69
2022/06/21 04:03:03;;;;;;;;;;;;;;;6.69;100.00;98609.88;4210502;28;20375;-69
2022/06/21 04:05:07;;;;;;;;;;;;;;;6.78;99.19;98613.28;4206446;28;20366;-69
2022/06/21 04:07:18;;;;;;;;;;;;;;;6.87;96.63;98615.88;4210056;28;20360;-69
2022/06/21 04:09:18;;;;;;;;;;;;;;;6.99;96.10;98613.88;4209908;28;19920;-69
2022/06/21 04:11:22;;;;;;;;;;;;;;;7.08;96.25;98619.22;4209691;28;19973;-69
2022/06/21 04:13:41;;;;;;;;;;;;;;;7.20;97.04;98621.94;4207652;28;20316;-69
2022/06/21 04:15:46;;;;;;;;;;;;;;;7.33;95.33;98619.91;4208631;28;20409;-69
2022/06/21 04:17:53;;;;;;;;;;;;;;;7.43;97.02;98624.06;4210639;28;19934;-69
2022/06/21 04:19:56;;;;;;;;;;;;;;;7.47;97.15;98614.78;4207122;28;19931;-69
2022/06/21 04:21:56;;;;;;;;;;;;;;;7.51;97.47;98623.91;4208855;28;20304;-69
2022/06/21 04:24:00;;;;;;;;;;;;;;;7.62;95.60;98623.41;4209008;28;20037;-69
2022/06/21 04:26:08;;;;;;;;;;;;;;;7.74;93.72;98626.06;4207560;28;19969;-69
2022/06/21 04:28:15;;;;;;;;;;;;;;;7.92;92.10;98629.25;4208528;28;21204;-69
2022/06/21 04:30:25;;;;;;;;;;;;;;;8.07;91.20;98637.50;4206469;28;19946;-69
2022/06/21 04:32:36;;;;;;;;;;;;;;;8.15;91.49;98633.75;4206679;28;19935;-69
2022/06/21 04:34:36;;;;;;;;;;;;;;;8.13;91.88;98630.56;4205468;28;19920;-68
2022/06/21 04:36:52;;;;;;;;;;;;;;;8.08;92.37;98639.09;4210404;28;20511;-68
2022/06/21 04:38:58;;;;;;;;;;;;;;;8.00;93.54;98625.50;4207068;28;19924;-69
2022/06/21 04:43:35;;;;;;;;;;;;;;;7.97;93.29;98631.75;4204123;28;19942;-69
2022/06/21 04:45:36;;;;;;;;;;;;;;;8.00;93.77;98631.00;4211173;28;20046;-69
2022/06/21 04:47:46;;;;;;;;;;;;;;;8.02;94.06;98621.22;4207716;28;19912;-69
2022/06/21 04:49:51;;;;;;;;;;;;;;;8.11;94.36;98618.31;4208458;28;19963;-69
2022/06/21 04:51:54;;;;;;;;;;;;;;;8.21;94.37;98620.50;4209262;28;19926;-69
2022/06/21 04:53:58;;;;;;;;;;;;;;;8.30;94.13;98623.06;4210918;28;19935;-69
2022/06/21 04:56:14;;;;;;;;;;;;;;;8.38;94.40;98625.66;4213376;28;19916;-69
2022/06/21 04:58:14;;;;;;;;;;;;;;;8.47;93.94;98621.91;4208875;28;20251;-69
2022/06/21 05:00:16;;;;;;;;;;;;;;;8.54;93.58;98625.59;4207989;28;19967;-69
2022/06/21 05:02:22;;;;;;;;;;;;;;;8.63;93.83;98626.19;4208859;28;19971;-69
2022/06/21 05:04:25;;;;;;;;;;;;;;;8.70;93.77;98626.34;4213900;28;20359;-69
2022/06/21 05:06:25;;;;;;;;;;;;;;;8.78;92.61;98615.47;4206785;28;19955;-69
2022/06/21 05:08:26;;;;;;;;;;;;;;;8.87;92.47;98616.06;4209612;28;19916;-69
2022/06/21 05:10:35;;;;;;;;;;;;;;;8.97;91.16;98620.97;4212302;28;19920;-69
2022/06/21 05:12:38;;;;;;;;;;;;;;;9.08;91.32;98621.97;4211283;28;19927;-69
2022/06/21 05:14:44;;;;;;;;;;;;;;;9.19;90.77;98623.00;4213067;28;20205;-69
2022/06/21 05:16:45;;;;;;;;;;;;;;;9.29;91.31;98619.63;4206101;28;19923;-69
2022/06/21 05:18:48;;;;;;;;;;;;;;;9.37;90.42;98615.03;4211298;28;19920;-69
2022/06/21 05:20:50;;;;;;;;;;;;;;;9.47;90.19;98613.63;4216651;28;20272;-69
2022/06/21 05:22:52;;;;;;;;;;;;;;;9.57;89.85;98601.97;4217657;28;19938;-69
2022/06/21 05:24:54;;;;;;;;;;;;;;;9.69;91.01;98604.56;4211896;28;19916;-69
2022/06/21 05:26:57;;;;;;;;;;;;;;;9.83;89.85;98612.28;4211980;28;20274;-69
2022/06/21 05:29:01;;;;;;;;;;;;;;;9.96;90.08;98613.69;4211749;28;20279;-69
2022/06/21 05:31:23;;;;;;;;;;;;;;;10.10;89.31;98616.69;4211787;28;19962;-69
2022/06/21 05:33:35;;;;;;;;;;;;;;;10.26;87.82;98612.97;4211296;28;19920;-69
2022/06/21 05:35:37;;;;;;;;;;;;;;;10.41;87.85;98609.25;4212049;28;19923;-69
2022/06/21 05:37:46;;;;;;;;;;;;;;;10.53;87.23;98616.53;4213128;27;19919;-69
2022/06/21 05:39:48;;;;;;;;;;;;;;;10.66;87.42;98615.13;4212901;28;19920;-69
2022/06/21 05:41:51;;;;;;;;;;;;;;;10.77;86.71;98618.03;4213627;28;19919;-69
2022/06/21 05:43:52;;;;;;;;;;;;;;;10.91;86.97;98621.78;4212018;28;19926;-69
2022/06/21 05:46:00;;;;;;;;;;;;;;;11.00;86.24;98621.47;4207029;28;19920;-69
2022/06/21 05:48:08;;;;;;;;;;;;;;;11.10;85.23;98614.50;4211669;28;19955;-69
2022/06/21 05:50:11;;;;;;;;;;;;;;;11.18;86.22;98625.28;4206953;28;20302;-69
2022/06/21 05:52:16;;;;;;;;;;;;;;;11.25;85.29;98622.59;4217286;28;19924;-69
2022/06/21 05:54:18;;;;;;;;;;;;;;;11.37;83.36;98617.94;4215775;28;19923;-69
2022/06/21 05:56:21;;;;;;;;;;;;;;;11.45;86.47;98620.41;4211708;28;19922;-69
2022/06/21 05:58:24;;;;;;;;;;;;;;;11.51;85.35;98618.91;4214504;28;20049;-69
2022/06/21 06:00:43;;;;;;;;;;;;;;;11.60;84.40;98603.94;4213208;28;20264;-69
2022/06/21 06:02:47;;;;;;;;;;;;;;;11.67;84.40;98604.00;4211778;28;20359;-69
2022/06/21 06:04:47;;;;;;;;;;;;;;;11.73;84.56;98603.25;4211225;28;19916;-69
2022/06/21 06:06:48;;;;;;;;;;;;;;;11.81;84.43;98612.47;4211196;28;19943;-69
2022/06/21 06:08:53;;;;;;;;;;;;;;;11.87;83.94;98615.69;4210885;28;19920;-69
2022/06/21 06:10:54;;;;;;;;;;;;;;;11.97;84.06;98614.97;4211624;28;19978;-69
2022/06/21 06:12:58;;;;;;;;;;;;;;;12.07;85.17;98615.03;4212707;28;19951;-69
2022/06/21 06:15:03;;;;;;;;;;;;;;;12.20;84.69;98623.88;4212801;28;19916;-69
2022/06/21 06:17:06;;;;;;;;;;;;;;;12.27;82.71;98612.81;4212154;28;19931;-69
2022/06/21 06:19:14;;;;;;;;;;;;;;;12.40;81.76;98623.59;4212472;28;19916;-69
2022/06/21 06:21:14;;;;;;;;;;;;;;;12.48;81.39;98626.03;4211350;28;19915;-69
2022/06/21 06:23:29;;;;;;;;;;;;;;;12.47;78.28;98634.75;4215780;28;20317;-69
2022/06/21 06:25:37;;;;;;;;;;;;;;;12.55;78.84;98637.19;4212823;28;20309;-69
2022/06/21 06:27:45;;;;;;;;;;;;;;;12.57;78.63;98645.09;4213172;28;19965;-69
2022/06/21 06:29:48;;;;;;;;;;;;;;;12.63;78.89;98627.69;4209100;28;20315;-69
2022/06/21 06:31:50;;;;;;;;;;;;;;;12.72;78.80;98634.88;4202946;28;20071;-69
2022/06/21 06:33:55;;;;;;;;;;;;;;;12.77;79.21;98632.53;4213378;28;19916;-69
2022/06/21 06:35:56;;;;;;;;;;;;;;;12.93;80.20;98638.56;4214100;27;20102;-69
2022/06/21 06:37:56;;;;;;;;;;;;;;;13.02;77.61;98638.22;4220409;28;19916;-69
2022/06/21 06:39:58;;;;;;;;;;;;;;;13.13;76.91;98638.25;4213864;28;20141;-69
2022/06/21 06:42:03;;;;;;;;;;;;;;;13.18;75.21;98643.44;4223072;28;19916;-69
2022/06/21 06:44:09;;;;;;;;;;;;;;;13.24;75.53;98641.91;4216435;28;19920;-70
2022/06/21 06:46:15;;;;;;;;;;;;;;;13.32;75.83;98651.88;4216084;28;20329;-69
2022/06/21 06:48:21;;;;;;;;;;;;;;;13.40;76.12;98647.88;4216073;28;19916;-69
2022/06/21 06:50:27;;;;;;;;;;;;;;;13.48;74.51;98649.50;4216102;28;19920;-69
2022/06/21 06:52:34;;;;;;;;;;;;;;;13.59;73.80;98640.41;4216335;28;20233;-69
2022/06/21 06:54:41;;;;;;;;;;;;;;;13.67;72.65;98631.69;4213329;28;19924;-69
2022/06/21 06:56:48;;;;;;;;;;;;;;;13.73;72.75;98630.09;4219261;28;19955;-69
2022/06/21 06:59:12;;;;;;;;;;;;;;;13.80;72.43;98634.06;4215924;28;19920;-70
2022/06/21 07:01:23;;;;;;;;;;;;;;;13.84;71.80;98627.34;4210836;28;20026;-69
2022/06/21 07:03:36;;;;;;;;;;;;;;;13.90;67.83;98628.53;4211863;28;19920;-69
2022/06/21 07:05:43;;;;;;;;;;;;;;;13.92;68.75;98631.72;4216616;28;20280;-69
2022/06/21 07:07:56;;;;;;;;;;;;;;;14.02;68.54;98624.56;4213993;28;19924;-70
2022/06/21 07:09:58;;;;;;;;;;;;;;;14.19;67.02;98632.09;4212064;28;20003;-69
2022/06/21 07:12:18;;;;;;;;;;;;;;;14.22;66.88;98638.84;4217594;28;19916;-69
2022/06/21 07:14:24;;;;;;;;;;;;;;;14.38;66.46;98638.44;4215780;28;20147;-69
2022/06/21 07:16:25;;;;;;;;;;;;;;;14.37;64.97;98642.44;4216218;28;19924;-70
2022/06/21 07:18:27;;;;;;;;;;;;;;;14.23;62.85;98635.69;4214021;28;20272;-70
2022/06/21 07:20:32;;;;;;;;;;;;;;;14.33;63.88;98637.66;4211445;28;20015;-70
2022/06/21 07:22:34;;;;;;;;;;;;;;;14.40;64.06;98644.41;4215624;28;20084;-70
2022/06/21 07:24:34;;;;;;;;;;;;;;;14.43;64.63;98638.84;4213946;28;19916;-70
2022/06/21 07:26:40;;;;;;;;;;;;;;;14.47;64.59;98644.44;4219730;28;19920;-70
2022/06/21 07:28:44;;;;;;;;;;;;;;;14.58;63.89;98639.66;4215208;28;19915;-70
2022/06/21 07:30:47;;;;;;;;;;;;;;;14.48;64.13;98641.25;4213380;28;20015;-70
2022/06/21 07:33:03;;;;;;;;;;;;;;;14.46;63.73;98640.84;4218482;28;19920;-70
2022/06/21 07:35:06;;;;;;;;;;;;;;;14.60;66.24;98646.41;4210767;28;20399;-70
2022/06/21 07:37:10;;;;;;;;;;;;;;;14.75;65.91;98649.16;4212098;27;19916;-70
2022/06/21 07:39:22;;;;;;;;;;;;;;;14.81;65.00;98644.75;4214821;28;19919;-70
2022/06/21 07:41:41;;;;;;;;;;;;;;;14.87;64.48;98646.72;4216165;28;19916;-70
2022/06/21 07:43:45;;;;;;;;;;;;;;;14.98;65.31;98645.91;4206210;28;19972;-70
2022/06/21 07:45:50;;;;;;;;;;;;;;;15.06;64.39;98644.66;4213489;28;19959;-70
2022/06/21 07:47:58;;;;;;;;;;;;;;;15.16;64.35;98647.44;4213667;28;19916;-70
2022/06/21 07:50:02;;;;;;;;;;;;;;;15.20;63.72;98646.59;4212935;28;20275;-70
2022/06/21 07:52:06;;;;;;;;;;;;;;;15.28;64.67;98648.16;4213294;28;20341;-70
2022/06/21 07:54:10;;;;;;;;;;;;;;;15.35;63.46;98657.28;4215181;28;19920;-70
2022/06/21 07:56:15;;;;;;;;;;;;;;;15.43;62.02;98656.06;4215755;28;20010;-69
2022/06/21 07:58:24;;;;;;;;;;;;;;;15.47;59.41;98653.22;4208823;28;20023;-69
2022/06/21 08:06:40;;;;;;;;;;;;;;;15.47;60.82;98656.03;4220365;28;20203;-69
2022/06/21 08:07:45;;;;;;;;;;;;;;;15.46;60.55;98637.72;4212844;28;19936;-70
2022/06/21 08:09:45;;;;;;;;;;;;;;;15.49;60.89;98634.13;4212144;28;19916;-70
2022/06/21 08:11:46;;;;;;;;;;;;;;;15.43;59.42;98638.53;4220481;28;19938;-70
2022/06/21 08:13:46;;;;;;;;;;;;;;;15.50;59.21;98640.50;4215153;28;19919;-70
2022/06/21 08:15:52;;;;;;;;;;;;;;;15.60;58.74;98636.84;4206331;28;20288;-70
2022/06/21 08:17:55;;;;;;;;;;;;;;;15.55;57.64;98640.84;4218914;28;20138;-70
2022/06/21 08:20:08;;;;;;;;;;;;;;;15.68;58.40;98632.84;4212374;28;19923;-70
2022/06/21 08:22:15;;;;;;;;;;;;;;;15.71;57.17;98627.22;4213096;28;20387;-70
2022/06/21 08:24:34;;;;;;;;;;;;;;;15.78;56.92;98631.97;4217349;28;19916;-70
2022/06/21 08:26:37;;;;;;;;;;;;;;;15.77;56.73;98630.38;4207382;28;19916;-70
2022/06/21 08:28:43;;;;;;;;;;;;;;;15.79;57.10;98627.97;4212188;28;19920;-70
2022/06/21 08:30:51;;;;;;;;;;;;;;;15.89;56.10;98635.50;4212658;28;20747;-70
2022/06/21 08:33:00;;;;;;;;;;;;;;;15.91;54.93;98643.44;4214143;28;19920;-70
2022/06/21 08:35:08;;;;;;;;;;;;;;;15.89;55.72;98643.88;4215868;28;19916;-70
2022/06/21 08:37:33;;;;;;;;;;;;;;;16.01;55.78;98637.78;4213007;27;20010;-70
2022/06/21 08:39:45;;;;;;;;;;;;;;;16.09;55.98;98635.72;4212345;28;20399;-70
2022/06/21 08:42:00;;;;;;;;;;;;;;;16.18;55.36;98635.25;4210542;28;19962;-70
2022/06/21 08:44:18;;;;;;;;;;;;;;;16.22;54.64;98639.63;4209940;28;20348;-70
2022/06/21 08:46:21;;;;;;;;;;;;;;;16.15;54.52;98636.09;4207793;28;19920;-70
2022/06/21 08:48:28;;;;;;;;;;;;;;;16.21;53.39;98640.00;4211965;28;20195;-70
2022/06/21 08:50:32;;;;;;;;;;;;;;;16.25;52.73;98630.41;4213685;28;19952;-70
2022/06/21 08:52:35;;;;;;;;;;;;;;;16.36;54.46;98626.72;4216897;28;19916;-70
2022/06/21 08:54:41;;;;;;;;;;;;;;;16.46;54.82;98626.59;4212070;28;19952;-70
2022/06/21 08:56:47;;;;;;;;;;;;;;;16.60;53.75;98628.47;4210852;28;19920;-70
2022/06/21 08:58:47;;;;;;;;;;;;;;;16.60;51.19;98622.09;4213146;28;19922;-70
2022/06/21 09:01:17;;;;;;;;;;;;;;;16.76;52.19;98625.94;4205461;28;20274;-70
2022/06/21 09:03:37;;;;;;;;;;;;;;;16.82;50.77;98623.50;4167214;28;20087;-70
2022/06/21 09:06:05;;;;;;;;;;;;;;;16.84;50.90;98615.47;4208760;28;19923;-70
2022/06/21 09:08:22;;;;;;;;;;;;;;;16.79;50.64;98613.13;4212649;28;19934;-70
2022/06/21 09:10:47;;;;;;;;;;;;;;;16.93;49.40;98624.16;4214643;28;19919;-70
2022/06/21 09:12:53;;;;;;;;;;;;;;;17.00;51.21;98628.88;4207465;28;19916;-70
2022/06/21 09:14:53;;;;;;;;;;;;;;;17.04;49.12;98629.59;4211592;28;19916;-70
2022/06/21 09:17:12;;;;;;;;;;;;;;;17.05;50.33;98632.00;4215424;28;19919;-70
2022/06/21 09:19:25;;;;;;;;;;;;;;;17.19;50.93;98631.03;4210269;28;20132;-70
2022/06/21 09:21:25;;;;;;;;;;;;;;;17.22;49.67;98623.81;4210196;28;20359;-70
2022/06/21 09:23:44;;;;;;;;;;;;;;;17.31;49.98;98615.72;4213579;28;19923;-70
2022/06/21 09:25:47;;;;;;;;;;;;;;;17.34;48.16;98609.25;4209417;28;20279;-70
2022/06/21 09:27:49;;;;;;;;;;;;;;;17.34;49.51;98612.06;4212796;28;20042;-70
2022/06/21 09:29:54;;;;;;;;;;;;;;;17.34;48.16;98604.47;4209934;28;20002;-70
2022/06/21 09:32:10;;;;;;;;;;;;;;;17.46;48.59;98602.31;4212654;28;19933;-70
2022/06/21 09:34:19;;;;;;;;;;;;;;;17.45;47.17;98593.13;4215189;28;19926;-70
2022/06/21 09:36:19;;;;;;;;;;;;;;;17.47;47.33;98587.13;4213233;28;19912;-70
2022/06/21 09:38:43;;;;;;;;;;;;;;;17.48;49.11;98577.53;4209499;28;19955;-70
2022/06/21 09:40:51;;;;;;;;;;;;;;;17.56;49.31;98570.59;4210775;28;19924;-70
2022/06/21 09:43:03;;;;;;;;;;;;;;;17.53;46.61;98575.03;4211868;28;20271;-70
2022/06/21 09:45:03;;;;;;;;;;;;;;;17.68;46.97;98568.00;4212824;28;19920;-70
2022/06/21 09:47:12;;;;;;;;;;;;;;;17.93;46.14;98573.22;4208786;28;19942;-70
2022/06/21 09:49:32;;;;;;;;;;;;;;;17.92;46.51;98574.44;4206680;28;20481;-70
2022/06/21 09:51:37;;;;;;;;;;;;;;;18.10;45.15;98562.94;4211243;28;19923;-70
2022/06/21 09:53:44;;;;;;;;;;;;;;;18.21;44.84;98557.97;4212284;28;20426;-70
2022/06/21 09:56:05;;;;;;;;;;;;;;;18.23;44.94;98552.72;4208090;28;20295;-70
2022/06/21 09:58:05;;;;;;;;;;;;;;;18.30;45.57;98548.22;4214852;28;19931;-70
2022/06/21 10:00:29;;;;;;;;;;;;;;;18.24;44.33;98547.91;4212674;28;20077;-70
2022/06/21 10:02:48;;;;;;;;;;;;;;;18.31;44.81;98553.38;4204469;28;20155;-70
2022/06/21 10:05:06;;;;;;;;;;;;;;;18.36;43.86;98555.66;4211643;28;20363;-70
2022/06/21 10:07:32;;;;;;;;;;;;;;;18.16;43.20;98558.44;4214172;28;19924;-70
2022/06/21 10:09:40;;;;;;;;;;;;;;;18.21;43.80;98559.97;4206443;28;19916;-70
2022/06/21 10:11:51;;;;;;;;;;;;;;;18.29;42.95;98567.03;4211120;28;19927;-70
2022/06/21 10:13:54;;;;;;;;;;;;;;;18.40;42.62;98552.81;4211039;28;19923;-70
2022/06/21 10:16:13;;;;;;;;;;;;;;;18.52;43.47;98558.56;4215960;28;19923;-70
2022/06/21 10:18:34;;;;;;;;;;;;;;;18.69;42.79;98551.06;4211284;28;20681;-70
2022/06/21 10:20:34;;;;;;;;;;;;;;;18.67;41.58;98555.53;4211005;28;19920;-70
2022/06/21 10:22:40;;;;;;;;;;;;;;;18.77;41.51;98560.13;4211087;28;19998;-70
2022/06/21 10:24:41;;;;;;;;;;;;;;;18.65;41.41;98561.56;4209277;28;20275;-70
2022/06/21 10:27:00;;;;;;;;;;;;;;;18.94;43.39;98560.97;4211170;28;19967;-70
2022/06/21 10:29:03;;;;;;;;;;;;;;;19.04;39.91;98554.38;4210323;28;19912;-70
2022/06/21 10:31:08;;;;;;;;;;;;;;;18.96;40.83;98550.16;4217556;28;19924;-70
2022/06/21 10:33:15;;;;;;;;;;;;;;;19.16;40.77;98553.69;4206796;28;20026;-70
2022/06/21 10:35:15;;;;;;;;;;;;;;;19.43;40.82;98553.50;4212615;28;19916;-70
2022/06/21 10:37:15;;;;;;;;;;;;;;;19.56;39.38;98550.81;4214460;28;19951;-70
2022/06/21 10:39:18;;;;;;;;;;;;;;;19.60;39.29;98543.91;4194256;28;19970;-70
2022/06/21 10:41:18;;;;;;;;;;;;;;;19.69;39.62;98540.47;4217502;28;19977;-70
2022/06/21 10:43:25;;;;;;;;;;;;;;;19.73;40.35;98534.78;4211504;28;20252;-70
2022/06/21 10:45:25;;;;;;;;;;;;;;;19.77;38.90;98530.66;4215042;28;19916;-70
2022/06/21 10:47:26;;;;;;;;;;;;;;;19.70;38.70;98521.66;4215930;28;19950;-70
2022/06/21 10:49:41;;;;;;;;;;;;;;;19.74;40.03;98513.91;4209914;28;19916;-71
2022/06/21 10:52:00;;;;;;;;;;;;;;;19.92;41.34;98512.22;4217827;28;20151;-71
2022/06/21 10:54:03;;;;;;;;;;;;;;;20.04;39.54;98510.75;4210399;28;19912;-71
2022/06/21 10:58:28;;;;;;;;;;;;;;;20.18;38.61;98524.38;4204133;28;20262;-71
2022/06/21 11:02:59;;;;;;;;;;;;;;;20.47;36.58;98520.84;4212469;28;19972;-71
2022/06/21 11:05:13;;;;;;;;;;;;;;;20.19;37.04;98511.16;4216900;28;19979;-70
2022/06/21 11:07:20;;;;;;;;;;;;;;;20.29;37.53;98504.47;4206065;28;19920;-70
2022/06/21 11:09:39;;;;;;;;;;;;;;;20.47;37.33;98501.19;4212200;28;19957;-70
2022/06/21 11:11:44;;;;;;;;;;;;;;;20.71;37.36;98496.88;4210551;28;19915;-70
2022/06/21 11:14:07;;;;;;;;;;;;;;;20.94;37.87;98487.38;4212325;28;19920;-70